sensor_id;sensor_type;location;lat;lon;timestamp;pressure;altitude;pressure_sealevel;temperature;humidity
63033;BME280;49121;38.932;-9.018;2023-03-01T00:00:25;111992.50;;;-145.11;59.66
63033;BME280;49121;38.932;-9.018;2023-03-01T00:02:26;111992.50;;;-145.11;59.21
63033;BME280;49121;38.932;-9.018;2023-03-01T00:04:27;111992.50;;;-145.11;59.55
63033;BME280;49121;38.932;-9.018;2023-03-01T00:06:27;111992.50;;;-145.11;60.04
63033;BME280;49121;38.932;-9.018;2023-03-01T00:08:28;111992.50;;;-145.11;60.09
63033;BME280;49121;38.932;-9.018;2023-03-01T00:10:30;111992.50;;;-145.11;60.16
63033;BME280;49121;38.932;-9.018;2023-03-01T00:12:31;111992.50;;;-145.11;60.18
63033;BME280;49121;38.932;-9.018;2023-03-01T00:14:31;111992.50;;;-145.11;61.19
63033;BME280;49121;38.932;-9.018;2023-03-01T00:16:34;111992.50;;;-145.11;62.22
63033;BME280;49121;38.932;-9.018;2023-03-01T00:18:36;111992.50;;;-145.11;63.99
63033;BME280;49121;38.932;-9.018;2023-03-01T00:20:36;111992.50;;;-145.11;65.17
63033;BME280;49121;38.932;-9.018;2023-03-01T00:22:37;111992.50;;;-145.11;65.92
63033;BME280;49121;38.932;-9.018;2023-03-01T00:24:37;111992.50;;;-145.11;66.52
63033;BME280;49121;38.932;-9.018;2023-03-01T00:26:38;111992.50;;;-145.11;66.70
63033;BME280;49121;38.932;-9.018;2023-03-01T00:28:39;111992.50;;;-145.11;67.23
63033;BME280;49121;38.932;-9.018;2023-03-01T00:30:43;111992.50;;;-145.11;67.24
63033;BME280;49121;38.932;-9.018;2023-03-01T00:32:44;111992.50;;;-145.11;67.31
63033;BME280;49121;38.932;-9.018;2023-03-01T00:34:45;111992.50;;;-145.11;67.36
63033;BME280;49121;38.932;-9.018;2023-03-01T00:36:54;111992.50;;;-145.11;67.08
63033;BME280;49121;38.932;-9.018;2023-03-01T00:38:55;111992.50;;;-145.11;66.74
63033;BME280;49121;38.932;-9.018;2023-03-01T00:41:03;111992.50;;;-145.11;67.09
63033;BME280;49121;38.932;-9.018;2023-03-01T00:43:04;111992.50;;;-145.11;67.11
63033;BME280;49121;38.932;-9.018;2023-03-01T00:45:05;111992.50;;;-145.11;67.16
63033;BME280;49121;38.932;-9.018;2023-03-01T00:47:06;111992.50;;;-145.11;67.63
63033;BME280;49121;38.932;-9.018;2023-03-01T00:49:07;111992.50;;;-145.11;67.60
63033;BME280;49121;38.932;-9.018;2023-03-01T00:51:28;111992.50;;;-145.11;67.37
63033;BME280;49121;38.932;-9.018;2023-03-01T00:53:30;111992.50;;;-145.11;67.27
63033;BME280;49121;38.932;-9.018;2023-03-01T00:55:31;111992.50;;;-145.11;67.86
63033;BME280;49121;38.932;-9.018;2023-03-01T00:57:31;111992.50;;;-145.11;67.63
63033;BME280;49121;38.932;-9.018;2023-03-01T00:59:33;111992.50;;;-145.11;67.95
63033;BME280;49121;38.932;-9.018;2023-03-01T01:01:53;111992.50;;;-145.11;68.55
63033;BME280;49121;38.932;-9.018;2023-03-01T01:03:58;111992.50;;;-145.11;68.51
63033;BME280;49121;38.932;-9.018;2023-03-01T01:05:59;111992.50;;;-145.11;68.87
63033;BME280;49121;38.932;-9.018;2023-03-01T01:08:05;111992.50;;;-145.11;69.03
63033;BME280;49121;38.932;-9.018;2023-03-01T01:10:06;111992.50;;;-145.11;69.11
63033;BME280;49121;38.932;-9.018;2023-03-01T01:12:07;111992.50;;;-145.11;69.55
63033;BME280;49121;38.932;-9.018;2023-03-01T01:14:08;111992.50;;;-145.11;69.35
63033;BME280;49121;38.932;-9.018;2023-03-01T01:16:09;111992.50;;;-145.11;69.99
63033;BME280;49121;38.932;-9.018;2023-03-01T01:18:09;111992.50;;;-145.11;71.09
63033;BME280;49121;38.932;-9.018;2023-03-01T01:20:11;111992.50;;;-145.11;71.73
63033;BME280;49121;38.932;-9.018;2023-03-01T01:22:11;111992.50;;;-145.11;71.99
63033;BME280;49121;38.932;-9.018;2023-03-01T01:24:12;111992.50;;;-145.11;71.85
63033;BME280;49121;38.932;-9.018;2023-03-01T01:26:22;111992.50;;;-145.11;72.35
63033;BME280;49121;38.932;-9.018;2023-03-01T01:28:41;111992.50;;;-145.11;72.70
63033;BME280;49121;38.932;-9.018;2023-03-01T01:30:42;111992.50;;;-145.11;72.73
63033;BME280;49121;38.932;-9.018;2023-03-01T01:32:42;111992.50;;;-145.11;72.78
63033;BME280;49121;38.932;-9.018;2023-03-01T01:34:43;111992.50;;;-145.11;72.83
63033;BME280;49121;38.932;-9.018;2023-03-01T01:36:48;111992.50;;;-145.11;73.17
63033;BME280;49121;38.932;-9.018;2023-03-01T01:38:49;111992.50;;;-145.11;73.37
63033;BME280;49121;38.932;-9.018;2023-03-01T01:40:50;111992.50;;;-145.11;73.12
63033;BME280;49121;38.932;-9.018;2023-03-01T01:42:51;111992.50;;;-145.11;73.04
63033;BME280;49121;38.932;-9.018;2023-03-01T01:47:30;111992.50;;;-145.11;73.65
63033;BME280;49121;38.932;-9.018;2023-03-01T01:49:33;111992.50;;;-145.11;73.51
63033;BME280;49121;38.932;-9.018;2023-03-01T01:51:39;111992.50;;;-145.11;73.34
63033;BME280;49121;38.932;-9.018;2023-03-01T01:53:42;111992.50;;;-145.11;73.49
63033;BME280;49121;38.932;-9.018;2023-03-01T01:55:48;111992.50;;;-145.11;73.59
63033;BME280;49121;38.932;-9.018;2023-03-01T01:57:54;111992.50;;;-145.11;73.90
63033;BME280;49121;38.932;-9.018;2023-03-01T01:59:59;111992.50;;;-145.11;74.09
63033;BME280;49121;38.932;-9.018;2023-03-01T02:02:02;111992.50;;;-145.11;74.16
63033;BME280;49121;38.932;-9.018;2023-03-01T02:04:04;111992.50;;;-145.11;74.36
63033;BME280;49121;38.932;-9.018;2023-03-01T02:06:20;111992.50;;;-145.11;74.30
63033;BME280;49121;38.932;-9.018;2023-03-01T02:08:26;111992.50;;;-145.11;73.98
63033;BME280;49121;38.932;-9.018;2023-03-01T02:10:28;111992.50;;;-145.11;74.00
63033;BME280;49121;38.932;-9.018;2023-03-01T02:12:29;111992.50;;;-145.11;73.87
63033;BME280;49121;38.932;-9.018;2023-03-01T02:14:30;111992.50;;;-145.11;74.36
63033;BME280;49121;38.932;-9.018;2023-03-01T02:16:31;111992.50;;;-145.11;73.83
63033;BME280;49121;38.932;-9.018;2023-03-01T02:18:32;111992.50;;;-145.11;74.35
63033;BME280;49121;38.932;-9.018;2023-03-01T02:22:55;111992.50;;;-145.11;74.45
63033;BME280;49121;38.932;-9.018;2023-03-01T02:27:23;111992.50;;;-145.11;74.28
63033;BME280;49121;38.932;-9.018;2023-03-01T02:29:29;111992.50;;;-145.11;74.52
63033;BME280;49121;38.932;-9.018;2023-03-01T02:31:30;111992.50;;;-145.11;74.22
63033;BME280;49121;38.932;-9.018;2023-03-01T02:33:43;111992.50;;;-145.11;74.49
63033;BME280;49121;38.932;-9.018;2023-03-01T02:35:45;111992.50;;;-145.11;74.31
63033;BME280;49121;38.932;-9.018;2023-03-01T02:37:47;111992.50;;;-145.11;74.92
63033;BME280;49121;38.932;-9.018;2023-03-01T02:39:51;111992.50;;;-145.11;74.79
63033;BME280;49121;38.932;-9.018;2023-03-01T02:41:56;111992.50;;;-145.11;74.28
63033;BME280;49121;38.932;-9.018;2023-03-01T02:43:57;111992.50;;;-145.11;74.27
63033;BME280;49121;38.932;-9.018;2023-03-01T02:46:21;111992.50;;;-145.11;74.32
63033;BME280;49121;38.932;-9.018;2023-03-01T02:48:47;111992.50;;;-145.11;74.97
63033;BME280;49121;38.932;-9.018;2023-03-01T02:50:53;111992.50;;;-145.11;74.35
63033;BME280;49121;38.932;-9.018;2023-03-01T02:52:57;111992.50;;;-145.11;74.70
63033;BME280;49121;38.932;-9.018;2023-03-01T02:55:13;111992.50;;;-145.11;74.80
63033;BME280;49121;38.932;-9.018;2023-03-01T02:57:16;111992.50;;;-145.11;74.95
63033;BME280;49121;38.932;-9.018;2023-03-01T02:59:20;111992.50;;;-145.11;75.13
63033;BME280;49121;38.932;-9.018;2023-03-01T03:01:27;111992.50;;;-145.11;75.63
63033;BME280;49121;38.932;-9.018;2023-03-01T03:03:38;111992.50;;;-145.11;75.41
63033;BME280;49121;38.932;-9.018;2023-03-01T03:05:39;111992.50;;;-145.11;75.58
63033;BME280;49121;38.932;-9.018;2023-03-01T03:07:43;111992.50;;;-145.11;75.52
63033;BME280;49121;38.932;-9.018;2023-03-01T03:09:44;111992.50;;;-145.11;75.72
63033;BME280;49121;38.932;-9.018;2023-03-01T03:11:45;111992.50;;;-145.11;75.66
63033;BME280;49121;38.932;-9.018;2023-03-01T03:13:46;111992.50;;;-145.11;75.22
63033;BME280;49121;38.932;-9.018;2023-03-01T03:15:49;111992.50;;;-145.11;75.61
63033;BME280;49121;38.932;-9.018;2023-03-01T03:17:51;111992.50;;;-145.11;75.04
63033;BME280;49121;38.932;-9.018;2023-03-01T03:19:52;111992.50;;;-145.11;74.87
63033;BME280;49121;38.932;-9.018;2023-03-01T03:21:53;111992.50;;;-145.11;74.75
63033;BME280;49121;38.932;-9.018;2023-03-01T03:23:53;111992.50;;;-145.11;75.22
63033;BME280;49121;38.932;-9.018;2023-03-01T03:25:54;111992.50;;;-145.11;74.91
63033;BME280;49121;38.932;-9.018;2023-03-01T03:27:55;111992.50;;;-145.11;74.83
63033;BME280;49121;38.932;-9.018;2023-03-01T03:29:58;111992.50;;;-145.11;74.31
63033;BME280;49121;38.932;-9.018;2023-03-01T03:31:59;111992.50;;;-145.11;74.94
63033;BME280;49121;38.932;-9.018;2023-03-01T03:34:00;111992.50;;;-145.11;75.43
63033;BME280;49121;38.932;-9.018;2023-03-01T03:36:01;111992.50;;;-145.11;74.76
63033;BME280;49121;38.932;-9.018;2023-03-01T03:38:20;111992.50;;;-145.11;75.29
63033;BME280;49121;38.932;-9.018;2023-03-01T03:40:43;111992.50;;;-145.11;74.65
63033;BME280;49121;38.932;-9.018;2023-03-01T03:42:45;111992.50;;;-145.11;75.08
63033;BME280;49121;38.932;-9.018;2023-03-01T03:44:45;111992.50;;;-145.11;74.83
63033;BME280;49121;38.932;-9.018;2023-03-01T03:46:46;111992.50;;;-145.11;75.02
63033;BME280;49121;38.932;-9.018;2023-03-01T03:48:47;111992.50;;;-145.11;74.92
63033;BME280;49121;38.932;-9.018;2023-03-01T03:50:50;111992.50;;;-145.11;75.13
63033;BME280;49121;38.932;-9.018;2023-03-01T03:52:50;111992.50;;;-145.11;75.30
63033;BME280;49121;38.932;-9.018;2023-03-01T03:54:51;111992.50;;;-145.11;75.01
63033;BME280;49121;38.932;-9.018;2023-03-01T03:56:52;111992.50;;;-145.11;74.92
63033;BME280;49121;38.932;-9.018;2023-03-01T03:58:52;111992.50;;;-145.11;75.14
63033;BME280;49121;38.932;-9.018;2023-03-01T04:00:56;111992.50;;;-145.11;74.72
63033;BME280;49121;38.932;-9.018;2023-03-01T04:02:57;111992.50;;;-145.11;74.70
63033;BME280;49121;38.932;-9.018;2023-03-01T04:04:58;111992.50;;;-145.11;74.60
63033;BME280;49121;38.932;-9.018;2023-03-01T04:06:58;111992.50;;;-145.11;74.72
63033;BME280;49121;38.932;-9.018;2023-03-01T04:08:59;111992.50;;;-145.11;74.97
63033;BME280;49121;38.932;-9.018;2023-03-01T04:11:04;111992.50;;;-145.11;74.97
63033;BME280;49121;38.932;-9.018;2023-03-01T04:13:24;111992.50;;;-145.11;74.29
63033;BME280;49121;38.932;-9.018;2023-03-01T04:15:26;111992.50;;;-145.11;74.37
63033;BME280;49121;38.932;-9.018;2023-03-01T04:17:27;111992.50;;;-145.11;74.82
63033;BME280;49121;38.932;-9.018;2023-03-01T04:19:27;111992.50;;;-145.11;74.25
63033;BME280;49121;38.932;-9.018;2023-03-01T04:21:28;111992.50;;;-145.11;73.98
63033;BME280;49121;38.932;-9.018;2023-03-01T04:23:29;111992.50;;;-145.11;74.01
63033;BME280;49121;38.932;-9.018;2023-03-01T04:25:29;111992.50;;;-145.11;74.06
63033;BME280;49121;38.932;-9.018;2023-03-01T04:27:36;111992.50;;;-145.11;73.69
63033;BME280;49121;38.932;-9.018;2023-03-01T04:29:36;111992.50;;;-145.11;73.71
63033;BME280;49121;38.932;-9.018;2023-03-01T04:31:37;111992.50;;;-145.11;73.76
63033;BME280;49121;38.932;-9.018;2023-03-01T04:33:39;111992.50;;;-145.11;73.42
63033;BME280;49121;38.932;-9.018;2023-03-01T04:35:40;111992.50;;;-145.11;73.63
63033;BME280;49121;38.932;-9.018;2023-03-01T04:37:41;111992.50;;;-145.11;73.67
63033;BME280;49121;38.932;-9.018;2023-03-01T04:39:42;111992.50;;;-145.11;73.81
63033;BME280;49121;38.932;-9.018;2023-03-01T04:41:45;111992.50;;;-145.11;73.07
63033;BME280;49121;38.932;-9.018;2023-03-01T04:43:46;111992.50;;;-145.11;73.33
63033;BME280;49121;38.932;-9.018;2023-03-01T04:45:47;111992.50;;;-145.11;73.09
63033;BME280;49121;38.932;-9.018;2023-03-01T04:47:47;111992.50;;;-145.11;72.81
63033;BME280;49121;38.932;-9.018;2023-03-01T04:49:48;111992.50;;;-145.11;72.79
63033;BME280;49121;38.932;-9.018;2023-03-01T04:51:49;111992.50;;;-145.11;73.09
63033;BME280;49121;38.932;-9.018;2023-03-01T04:53:50;111992.50;;;-145.11;72.75
63033;BME280;49121;38.932;-9.018;2023-03-01T04:55:50;111992.50;;;-145.11;73.29
63033;BME280;49121;38.932;-9.018;2023-03-01T04:57:51;111992.50;;;-145.11;73.01
63033;BME280;49121;38.932;-9.018;2023-03-01T04:59:53;111992.50;;;-145.11;73.01
63033;BME280;49121;38.932;-9.018;2023-03-01T05:01:55;111992.50;;;-145.11;72.99
63033;BME280;49121;38.932;-9.018;2023-03-01T05:03:56;111992.50;;;-145.11;72.83
63033;BME280;49121;38.932;-9.018;2023-03-01T05:06:03;111992.50;;;-145.11;72.51
63033;BME280;49121;38.932;-9.018;2023-03-01T05:08:06;111992.50;;;-145.11;72.75
63033;BME280;49121;38.932;-9.018;2023-03-01T05:10:08;111992.50;;;-145.11;72.62
63033;BME280;49121;38.932;-9.018;2023-03-01T05:12:09;111992.50;;;-145.11;72.83
63033;BME280;49121;38.932;-9.018;2023-03-01T05:14:10;111992.50;;;-145.11;72.71
63033;BME280;49121;38.932;-9.018;2023-03-01T05:16:11;111992.50;;;-145.11;72.47
63033;BME280;49121;38.932;-9.018;2023-03-01T05:18:12;111992.50;;;-145.11;72.50
63033;BME280;49121;38.932;-9.018;2023-03-01T05:20:12;111992.50;;;-145.11;72.93
63033;BME280;49121;38.932;-9.018;2023-03-01T05:22:13;111992.50;;;-145.11;72.61
63033;BME280;49121;38.932;-9.018;2023-03-01T05:24:14;111992.50;;;-145.11;73.26
63033;BME280;49121;38.932;-9.018;2023-03-01T05:26:19;111992.50;;;-145.11;73.27
63033;BME280;49121;38.932;-9.018;2023-03-01T05:28:22;111992.50;;;-145.11;73.25
63033;BME280;49121;38.932;-9.018;2023-03-01T05:30:22;111992.50;;;-145.11;73.92
63033;BME280;49121;38.932;-9.018;2023-03-01T05:32:23;111992.50;;;-145.11;73.69
63033;BME280;49121;38.932;-9.018;2023-03-01T05:36:25;111992.50;;;-145.11;73.98
63033;BME280;49121;38.932;-9.018;2023-03-01T05:38:26;111992.50;;;-145.11;73.43
63033;BME280;49121;38.932;-9.018;2023-03-01T05:40:27;111992.50;;;-145.11;73.81
63033;BME280;49121;38.932;-9.018;2023-03-01T05:42:27;111992.50;;;-145.11;73.87
63033;BME280;49121;38.932;-9.018;2023-03-01T05:44:28;111992.50;;;-145.11;73.65
63033;BME280;49121;38.932;-9.018;2023-03-01T05:46:29;111992.50;;;-145.11;73.46
63033;BME280;49121;38.932;-9.018;2023-03-01T05:48:30;111992.50;;;-145.11;73.77
63033;BME280;49121;38.932;-9.018;2023-03-01T05:50:37;111992.50;;;-145.11;73.54
63033;BME280;49121;38.932;-9.018;2023-03-01T05:52:40;111992.50;;;-145.11;73.29
63033;BME280;49121;38.932;-9.018;2023-03-01T05:54:40;111992.50;;;-145.11;73.49
63033;BME280;49121;38.932;-9.018;2023-03-01T05:56:41;111992.50;;;-145.11;73.42
63033;BME280;49121;38.932;-9.018;2023-03-01T05:58:41;111992.50;;;-145.11;72.71
63033;BME280;49121;38.932;-9.018;2023-03-01T06:00:43;111992.50;;;-145.11;72.82
63033;BME280;49121;38.932;-9.018;2023-03-01T06:02:44;111992.50;;;-145.11;72.94
63033;BME280;49121;38.932;-9.018;2023-03-01T06:04:49;111992.50;;;-145.11;73.10
63033;BME280;49121;38.932;-9.018;2023-03-01T06:06:50;111992.50;;;-145.11;73.38
63033;BME280;49121;38.932;-9.018;2023-03-01T06:08:51;111992.50;;;-145.11;73.58
63033;BME280;49121;38.932;-9.018;2023-03-01T06:10:52;111992.50;;;-145.11;73.97
63033;BME280;49121;38.932;-9.018;2023-03-01T06:12:53;111992.50;;;-145.11;74.13
63033;BME280;49121;38.932;-9.018;2023-03-01T06:14:54;111992.50;;;-145.11;73.74
63033;BME280;49121;38.932;-9.018;2023-03-01T06:16:54;111992.50;;;-145.11;74.33
63033;BME280;49121;38.932;-9.018;2023-03-01T06:18:55;111992.50;;;-145.11;74.31
63033;BME280;49121;38.932;-9.018;2023-03-01T06:20:56;111992.50;;;-145.11;74.43
63033;BME280;49121;38.932;-9.018;2023-03-01T06:22:56;111992.50;;;-145.11;74.47
63033;BME280;49121;38.932;-9.018;2023-03-01T06:24:57;111992.50;;;-145.11;74.80
63033;BME280;49121;38.932;-9.018;2023-03-01T06:26:58;111992.50;;;-145.11;74.70
63033;BME280;49121;38.932;-9.018;2023-03-01T06:28:58;111992.50;;;-145.11;73.96
63033;BME280;49121;38.932;-9.018;2023-03-01T06:30:59;111992.50;;;-145.11;74.15
63033;BME280;49121;38.932;-9.018;2023-03-01T06:32:59;111992.50;;;-145.11;74.34
63033;BME280;49121;38.932;-9.018;2023-03-01T06:35:01;111992.50;;;-145.11;74.24
63033;BME280;49121;38.932;-9.018;2023-03-01T06:37:02;111992.50;;;-145.11;74.00
63033;BME280;49121;38.932;-9.018;2023-03-01T06:39:05;111992.50;;;-145.11;74.10
63033;BME280;49121;38.932;-9.018;2023-03-01T06:41:06;111992.50;;;-145.11;73.89
63033;BME280;49121;38.932;-9.018;2023-03-01T06:43:07;111992.50;;;-145.11;73.73
63033;BME280;49121;38.932;-9.018;2023-03-01T06:45:09;111992.50;;;-145.11;73.87
63033;BME280;49121;38.932;-9.018;2023-03-01T06:47:15;111992.50;;;-145.11;73.54
63033;BME280;49121;38.932;-9.018;2023-03-01T06:49:15;111992.50;;;-145.11;73.69
63033;BME280;49121;38.932;-9.018;2023-03-01T06:51:18;111992.50;;;-145.11;73.16
63033;BME280;49121;38.932;-9.018;2023-03-01T06:53:19;111992.50;;;-145.11;72.79
63033;BME280;49121;38.932;-9.018;2023-03-01T06:55:19;111992.50;;;-145.11;73.51
63033;BME280;49121;38.932;-9.018;2023-03-01T06:57:20;111992.50;;;-145.11;73.47
63033;BME280;49121;38.932;-9.018;2023-03-01T06:59:21;111992.50;;;-145.11;73.65
63033;BME280;49121;38.932;-9.018;2023-03-01T07:01:21;111992.50;;;-145.11;73.44
63033;BME280;49121;38.932;-9.018;2023-03-01T07:03:22;111992.50;;;-145.11;73.56
63033;BME280;49121;38.932;-9.018;2023-03-01T07:05:23;111992.50;;;-145.11;73.60
63033;BME280;49121;38.932;-9.018;2023-03-01T07:07:24;111992.50;;;-145.11;73.70
63033;BME280;49121;38.932;-9.018;2023-03-01T07:09:24;111992.50;;;-145.11;73.12
63033;BME280;49121;38.932;-9.018;2023-03-01T07:11:25;111992.50;;;-145.11;73.45
63033;BME280;49121;38.932;-9.018;2023-03-01T07:13:25;111992.50;;;-145.11;73.81
63033;BME280;49121;38.932;-9.018;2023-03-01T07:15:27;111992.50;;;-145.11;73.18
63033;BME280;49121;38.932;-9.018;2023-03-01T07:17:28;111992.50;;;-145.11;73.40
63033;BME280;49121;38.932;-9.018;2023-03-01T07:19:28;111992.50;;;-145.11;73.21
63033;BME280;49121;38.932;-9.018;2023-03-01T07:21:29;111992.50;;;-145.11;73.45
63033;BME280;49121;38.932;-9.018;2023-03-01T07:23:31;111992.50;;;-145.11;73.35
63033;BME280;49121;38.932;-9.018;2023-03-01T07:25:31;111992.50;;;-145.11;72.84
63033;BME280;49121;38.932;-9.018;2023-03-01T07:27:32;111992.50;;;-145.11;73.39
63033;BME280;49121;38.932;-9.018;2023-03-01T07:29:33;111992.50;;;-145.11;73.12
63033;BME280;49121;38.932;-9.018;2023-03-01T07:31:36;111992.50;;;-145.11;73.39
63033;BME280;49121;38.932;-9.018;2023-03-01T07:33:37;111992.50;;;-145.11;73.22
63033;BME280;49121;38.932;-9.018;2023-03-01T07:35:38;111992.50;;;-145.11;72.71
63033;BME280;49121;38.932;-9.018;2023-03-01T07:37:38;111992.50;;;-145.11;72.48
63033;BME280;49121;38.932;-9.018;2023-03-01T07:39:39;111992.50;;;-145.11;71.70
63033;BME280;49121;38.932;-9.018;2023-03-01T07:41:39;111992.50;;;-145.11;70.77
63033;BME280;49121;38.932;-9.018;2023-03-01T07:43:40;111992.50;;;-145.11;70.36
63033;BME280;49121;38.932;-9.018;2023-03-01T07:45:41;111992.50;;;-145.11;68.92
63033;BME280;49121;38.932;-9.018;2023-03-01T07:47:41;111992.50;;;-145.11;67.35
63033;BME280;49121;38.932;-9.018;2023-03-01T07:49:42;111992.50;;;-145.11;65.43
63033;BME280;49121;38.932;-9.018;2023-03-01T07:51:43;111992.50;;;-145.11;61.86
63033;BME280;49121;38.932;-9.018;2023-03-01T07:53:46;111992.50;;;-145.11;58.46
63033;BME280;49121;38.932;-9.018;2023-03-01T07:55:47;111992.50;;;-145.11;55.24
63033;BME280;49121;38.932;-9.018;2023-03-01T07:57:48;111992.50;;;-145.11;53.12
63033;BME280;49121;38.932;-9.018;2023-03-01T07:59:48;111992.50;;;-145.11;52.23
63033;BME280;49121;38.932;-9.018;2023-03-01T08:01:49;111992.50;;;-145.11;51.64
63033;BME280;49121;38.932;-9.018;2023-03-01T08:03:49;111992.50;;;-145.11;52.23
63033;BME280;49121;38.932;-9.018;2023-03-01T08:05:50;111992.50;;;-145.11;52.98
63033;BME280;49121;38.932;-9.018;2023-03-01T08:07:51;111992.50;;;-145.11;54.08
63033;BME280;49121;38.932;-9.018;2023-03-01T08:09:51;111992.50;;;-145.11;55.06
63033;BME280;49121;38.932;-9.018;2023-03-01T08:11:52;111992.50;;;-145.11;56.04
63033;BME280;49121;38.932;-9.018;2023-03-01T08:13:53;111992.50;;;-145.11;56.92
63033;BME280;49121;38.932;-9.018;2023-03-01T08:15:54;111992.50;;;-145.11;57.02
63033;BME280;49121;38.932;-9.018;2023-03-01T08:17:54;111992.50;;;-145.11;57.21
63033;BME280;49121;38.932;-9.018;2023-03-01T08:19:55;111992.50;;;-145.11;56.89
63033;BME280;49121;38.932;-9.018;2023-03-01T08:21:56;111992.50;;;-145.11;56.24
63033;BME280;49121;38.932;-9.018;2023-03-01T08:23:58;111992.50;;;-145.11;54.36
63033;BME280;49121;38.932;-9.018;2023-03-01T08:26:09;111992.50;;;-145.11;54.44
63033;BME280;49121;38.932;-9.018;2023-03-01T08:28:10;111992.50;;;-145.11;52.26
63033;BME280;49121;38.932;-9.018;2023-03-01T08:30:12;111992.50;;;-145.11;45.24
63033;BME280;49121;38.932;-9.018;2023-03-01T08:32:13;111992.50;;;-145.11;44.89
63033;BME280;49121;38.932;-9.018;2023-03-01T08:34:15;111992.50;;;-145.11;43.45
63033;BME280;49121;38.932;-9.018;2023-03-01T08:36:17;111992.50;;;-145.11;42.88
63033;BME280;49121;38.932;-9.018;2023-03-01T08:38:20;111992.50;;;-145.11;42.13
63033;BME280;49121;38.932;-9.018;2023-03-01T08:40:29;111992.50;;;-145.11;41.25
63033;BME280;49121;38.932;-9.018;2023-03-01T08:42:34;111992.50;;;-145.11;41.74
63033;BME280;49121;38.932;-9.018;2023-03-01T08:44:34;111992.50;;;-145.11;41.66
63033;BME280;49121;38.932;-9.018;2023-03-01T08:46:36;111992.50;;;-145.11;41.76
63033;BME280;49121;38.932;-9.018;2023-03-01T08:48:37;111992.50;;;-145.11;41.15
63033;BME280;49121;38.932;-9.018;2023-03-01T08:50:37;111992.50;;;-145.11;40.74
63033;BME280;49121;38.932;-9.018;2023-03-01T08:52:38;111992.50;;;-145.11;36.73
63033;BME280;49121;38.932;-9.018;2023-03-01T08:54:38;111992.50;;;-145.11;35.90
63033;BME280;49121;38.932;-9.018;2023-03-01T08:56:39;111992.50;;;-145.11;35.72
63033;BME280;49121;38.932;-9.018;2023-03-01T08:58:45;111992.50;;;-145.11;34.61
63033;BME280;49121;38.932;-9.018;2023-03-01T09:00:48;111992.50;;;-145.11;32.56
63033;BME280;49121;38.932;-9.018;2023-03-01T09:02:49;111992.50;;;-145.11;31.75
63033;BME280;49121;38.932;-9.018;2023-03-01T09:04:50;111992.50;;;-145.11;32.84
63033;BME280;49121;38.932;-9.018;2023-03-01T09:06:50;111992.50;;;-145.11;32.57
63033;BME280;49121;38.932;-9.018;2023-03-01T09:08:51;111992.50;;;-145.11;33.42
63033;BME280;49121;38.932;-9.018;2023-03-01T09:10:51;111992.50;;;-145.11;32.46
63033;BME280;49121;38.932;-9.018;2023-03-01T09:12:52;111992.50;;;-145.11;33.36
63033;BME280;49121;38.932;-9.018;2023-03-01T09:14:53;111992.50;;;-145.11;33.28
63033;BME280;49121;38.932;-9.018;2023-03-01T09:16:56;111992.50;;;-145.11;32.15
63033;BME280;49121;38.932;-9.018;2023-03-01T09:18:56;111992.50;;;-145.11;32.55
63033;BME280;49121;38.932;-9.018;2023-03-01T09:21:34;111992.50;;;-145.11;32.81
63033;BME280;49121;38.932;-9.018;2023-03-01T09:23:29;111992.50;;;-145.11;32.07
63033;BME280;49121;38.932;-9.018;2023-03-01T09:25:31;111992.50;;;-145.11;32.49
63033;BME280;49121;38.932;-9.018;2023-03-01T09:27:34;111992.50;;;-145.11;32.49
63033;BME280;49121;38.932;-9.018;2023-03-01T09:29:36;111992.50;;;-145.11;32.01
63033;BME280;49121;38.932;-9.018;2023-03-01T09:31:38;111992.50;;;-145.11;32.09
63033;BME280;49121;38.932;-9.018;2023-03-01T09:33:41;111992.50;;;-145.11;32.61
63033;BME280;49121;38.932;-9.018;2023-03-01T09:35:42;111992.50;;;-145.11;32.59
63033;BME280;49121;38.932;-9.018;2023-03-01T09:37:46;111992.50;;;-145.11;32.91
63033;BME280;49121;38.932;-9.018;2023-03-01T09:39:47;111992.50;;;-145.11;32.79
63033;BME280;49121;38.932;-9.018;2023-03-01T09:42:01;111992.50;;;-145.11;32.96
63033;BME280;49121;38.932;-9.018;2023-03-01T09:44:13;111992.50;;;-145.11;32.49
63033;BME280;49121;38.932;-9.018;2023-03-01T09:46:16;111992.50;;;-145.11;32.12
63033;BME280;49121;38.932;-9.018;2023-03-01T09:48:20;111992.50;;;-145.11;31.72
63033;BME280;49121;38.932;-9.018;2023-03-01T09:50:26;111992.50;;;-145.11;31.97
63033;BME280;49121;38.932;-9.018;2023-03-01T09:55:15;111992.50;;;-145.11;32.30
63033;BME280;49121;38.932;-9.018;2023-03-01T10:02:35;111992.50;;;-145.11;33.44
63033;BME280;49121;38.932;-9.018;2023-03-01T10:09:34;111992.50;;;-145.11;33.91
63033;BME280;49121;38.932;-9.018;2023-03-01T10:11:39;111992.50;;;-145.11;34.10
63033;BME280;49121;38.932;-9.018;2023-03-01T10:15:50;111992.50;;;-145.11;33.70
63033;BME280;49121;38.932;-9.018;2023-03-01T10:17:58;111992.50;;;-145.11;34.09
63033;BME280;49121;38.932;-9.018;2023-03-01T10:20:17;111992.50;;;-145.11;33.21
63033;BME280;49121;38.932;-9.018;2023-03-01T10:22:22;111992.50;;;-145.11;33.66
63033;BME280;49121;38.932;-9.018;2023-03-01T10:24:23;111992.50;;;-145.11;34.27
63033;BME280;49121;38.932;-9.018;2023-03-01T10:26:47;111992.50;;;-145.11;33.12
63033;BME280;49121;38.932;-9.018;2023-03-01T10:31:05;111992.50;;;-145.11;34.82
63033;BME280;49121;38.932;-9.018;2023-03-01T10:33:26;111992.50;;;-145.11;34.79
63033;BME280;49121;38.932;-9.018;2023-03-01T10:35:29;111992.50;;;-145.11;33.94
63033;BME280;49121;38.932;-9.018;2023-03-01T10:37:56;111992.50;;;-145.11;35.58
63033;BME280;49121;38.932;-9.018;2023-03-01T10:40:07;111992.50;;;-145.11;33.89
63033;BME280;49121;38.932;-9.018;2023-03-01T10:42:30;111992.50;;;-145.11;34.45
63033;BME280;49121;38.932;-9.018;2023-03-01T10:44:42;111992.50;;;-145.11;36.71